Time;durP1;ratioP1;P1;durP2;ratioP2;P2;SDS_P1;SDS_P2;PMS_P1;PMS_P2;Temp;Humidity;BMP_temperature;BMP_pressure;BME280_temperature;BME280_humidity;BME280_pressure;Samples;Min_cycle;Max_cycle;Signal;HPM_P1;HPM_P2
2022/10/13 00:00:52;;;;;;;21.77;15.57;;;;;;;10.52;100.00;96099.56;6159036;23;20620;-81
2022/10/13 00:03:17;;;;;;;21.83;15.83;;;;;;;10.48;100.00;96088.59;6160455;23;20190;-81
2022/10/13 00:05:45;;;;;;;19.97;15.23;;;;;;;10.47;100.00;96081.78;6208885;23;20162;-81
2022/10/13 00:08:11;;;;;;;20.33;15.40;;;;;;;10.48;100.00;96084.22;6208870;23;20765;-81
2022/10/13 00:10:38;;;;;;;23.57;14.50;;;;;;;10.44;100.00;96080.28;6159468;23;20182;-82
2022/10/13 00:13:04;;;;;;;26.47;16.47;;;;;;;10.39;100.00;96090.22;6184365;23;20161;-81
2022/10/13 00:15:30;;;;;;;19.47;14.70;;;;;;;10.29;100.00;96079.00;6183419;23;20186;-81
2022/10/13 00:17:55;;;;;;;20.30;13.53;;;;;;;10.22;100.00;96090.84;6183706;23;20226;-82
2022/10/13 00:20:20;;;;;;;19.63;13.50;;;;;;;10.16;100.00;96088.78;6159344;23;20158;-81
2022/10/13 00:22:45;;;;;;;20.30;13.63;;;;;;;10.10;100.00;96087.53;6158661;23;20162;-81
2022/10/13 00:25:11;;;;;;;20.93;14.07;;;;;;;10.09;100.00;96090.25;6159111;23;20158;-81
2022/10/13 00:27:36;;;;;;;18.80;13.57;;;;;;;10.09;100.00;96083.28;6184517;23;20213;-81
2022/10/13 00:30:02;;;;;;;21.90;13.53;;;;;;;10.02;100.00;96089.13;6184518;23;20171;-81
2022/10/13 00:32:28;;;;;;;19.30;14.13;;;;;;;9.98;100.00;96085.13;6184062;23;20174;-81
2022/10/13 00:34:53;;;;;;;20.13;12.80;;;;;;;9.93;100.00;96082.94;6183853;23;20250;-81
2022/10/13 00:37:18;;;;;;;20.47;12.60;;;;;;;9.88;100.00;96085.09;6183646;23;20154;-81
2022/10/13 00:39:44;;;;;;;17.63;13.70;;;;;;;9.84;100.00;96086.31;6158430;23;20557;-80
2022/10/13 00:42:11;;;;;;;18.10;11.63;;;;;;;9.80;100.00;96077.13;6183171;23;20154;-81
2022/10/13 00:45:05;;;;;;;18.20;12.83;;;;;;;9.81;100.00;96074.44;6182863;23;20502;-82
2022/10/13 00:47:37;;;;;;;21.60;14.30;;;;;;;9.74;100.00;96073.31;6185786;23;20153;-82
2022/10/13 00:50:04;;;;;;;18.23;13.03;;;;;;;9.70;100.00;96077.09;6183264;23;20182;-81
2022/10/13 00:52:30;;;;;;;16.77;12.37;;;;;;;9.69;100.00;96079.81;6182789;23;20166;-81
2022/10/13 00:54:56;;;;;;;19.00;13.00;;;;;;;9.66;100.00;96086.09;6181952;23;20161;-81
2022/10/13 00:57:21;;;;;;;18.20;13.67;;;;;;;9.67;100.00;96077.38;6183478;23;20155;-81
2022/10/13 00:59:47;;;;;;;19.27;11.93;;;;;;;9.69;100.00;96085.84;6182091;23;20183;-81
2022/10/13 01:02:12;;;;;;;15.17;12.00;;;;;;;9.73;100.00;96082.03;6182399;23;20471;-81
2022/10/13 01:04:43;;;;;;;19.23;12.87;;;;;;;9.78;100.00;96079.06;6182238;23;20165;-81
2022/10/13 01:07:09;;;;;;;17.20;13.10;;;;;;;9.88;100.00;96079.91;6181030;23;20558;-81
2022/10/13 01:09:36;;;;;;;16.67;12.97;;;;;;;10.08;100.00;96076.47;6157536;23;20178;-81
2022/10/13 01:12:14;;;;;;;16.07;13.33;;;;;;;10.10;100.00;96074.53;6158048;23;20613;-81
2022/10/13 01:14:48;;;;;;;23.17;14.33;;;;;;;10.20;100.00;96075.38;6207317;23;20150;-81
2022/10/13 01:17:39;;;;;;;19.53;13.33;;;;;;;10.27;100.00;96080.09;6157420;23;20205;-81
2022/10/13 01:20:36;;;;;;;19.57;14.27;;;;;;;10.35;100.00;96080.25;6183742;23;20582;-80
2022/10/13 01:23:11;;;;;;;22.17;14.43;;;;;;;10.49;100.00;96072.88;6183847;23;20157;-80
2022/10/13 01:26:06;;;;;;;22.60;15.57;;;;;;;10.55;100.00;96083.69;6183842;23;20159;-80
2022/10/13 01:28:52;;;;;;;28.20;15.97;;;;;;;10.50;100.00;96064.13;6185115;23;20202;-81
2022/10/13 01:31:27;;;;;;;25.63;16.10;;;;;;;10.57;100.00;96068.81;6185034;23;20598;-82
2022/10/13 01:34:14;;;;;;;22.03;16.57;;;;;;;10.65;100.00;96059.38;6184557;23;20139;-81
2022/10/13 01:36:54;;;;;;;20.60;15.73;;;;;;;10.68;100.00;96060.88;6183904;23;20146;-82
2022/10/13 01:39:43;;;;;;;23.60;15.50;;;;;;;10.66;100.00;96055.81;6208838;23;20178;-82
2022/10/13 01:42:34;;;;;;;22.07;15.20;;;;;;;10.58;100.00;96053.06;6183349;23;20150;-82
2022/10/13 01:45:00;;;;;;;25.17;16.23;;;;;;;10.57;100.00;96048.03;6181715;23;20167;-81
2022/10/13 01:47:27;;;;;;;23.53;15.27;;;;;;;10.60;100.00;96051.19;6183104;23;20186;-81
2022/10/13 01:49:53;;;;;;;24.10;15.10;;;;;;;10.61;100.00;96046.81;6182994;23;20633;-81
2022/10/13 01:52:20;;;;;;;24.67;15.53;;;;;;;10.63;100.00;96052.69;6183273;23;20182;-82
2022/10/13 01:54:53;;;;;;;17.67;14.73;;;;;;;10.59;100.00;96049.53;6157504;23;20169;-81
2022/10/13 01:57:44;;;;;;;24.13;16.13;;;;;;;10.66;100.00;96045.44;6183459;23;20163;-82
2022/10/13 02:00:13;;;;;;;21.57;14.17;;;;;;;10.69;100.00;96046.94;6177528;23;20159;-83
2022/10/13 02:02:47;;;;;;;22.10;13.50;;;;;;;10.72;100.00;96046.69;6208001;23;20258;-82
2022/10/13 02:05:36;;;;;;;21.87;14.17;;;;;;;10.83;100.00;96043.13;6184360;23;20150;-82
2022/10/13 02:08:09;;;;;;;21.87;13.83;;;;;;;10.88;100.00;96040.94;6181582;23;20190;-82
2022/10/13 02:10:43;;;;;;;20.67;12.67;;;;;;;10.95;100.00;96042.00;6182565;23;20521;-82
2022/10/13 02:13:11;;;;;;;19.33;13.17;;;;;;;10.98;100.00;96049.56;6207360;23;20245;-81
2022/10/13 02:15:40;;;;;;;19.17;12.90;;;;;;;11.03;100.00;96053.34;6181721;23;20155;-82
2022/10/13 02:18:06;;;;;;;23.27;12.47;;;;;;;11.04;100.00;96049.81;6157321;23;20521;-82
2022/10/13 02:20:32;;;;;;;21.03;12.73;;;;;;;11.06;100.00;96053.09;6157252;23;20158;-82
2022/10/13 02:23:02;;;;;;;23.70;12.90;;;;;;;11.13;100.00;96052.53;6157356;23;20449;-82
2022/10/13 02:25:31;;;;;;;19.87;12.97;;;;;;;11.15;100.00;96055.84;6206330;23;20494;-83
2022/10/13 02:28:00;;;;;;;16.50;12.63;;;;;;;11.11;100.00;96057.06;6157045;23;20179;-82
2022/10/13 02:30:28;;;;;;;18.97;12.60;;;;;;;11.15;100.00;96067.06;6181901;23;20181;-81
2022/10/13 02:32:53;;;;;;;19.83;12.93;;;;;;;11.10;100.00;96058.84;6182461;23;20617;-82
2022/10/13 02:35:18;;;;;;;25.23;12.83;;;;;;;11.04;100.00;96057.63;6156811;23;20163;-83
2022/10/13 02:37:44;;;;;;;18.63;12.53;;;;;;;11.03;100.00;96053.34;6157110;23;20177;-82
2022/10/13 02:40:10;;;;;;;15.57;11.57;;;;;;;10.98;100.00;96050.38;6182335;23;20154;-82
2022/10/13 02:42:35;;;;;;;21.43;12.20;;;;;;;10.96;100.00;96054.88;6157302;23;20538;-82
2022/10/13 02:45:01;;;;;;;19.20;12.47;;;;;;;10.86;100.00;96051.44;6181933;23;20154;-82
2022/10/13 02:47:26;;;;;;;17.53;12.73;;;;;;;10.79;100.00;96050.38;6157052;23;20165;-82
2022/10/13 02:49:51;;;;;;;15.80;11.80;;;;;;;10.77;100.00;96049.66;6157013;23;20213;-82
2022/10/13 02:52:16;;;;;;;15.90;11.67;;;;;;;10.75;100.00;96049.00;6157190;23;20173;-83
2022/10/13 02:54:42;;;;;;;19.70;12.27;;;;;;;10.72;100.00;96044.09;6155993;23;20162;-83
2022/10/13 02:57:07;;;;;;;14.63;11.90;;;;;;;10.74;100.00;96036.97;6181999;23;20159;-83
2022/10/13 02:59:32;;;;;;;19.53;11.70;;;;;;;10.77;100.00;96037.50;6181855;23;20216;-83
2022/10/13 03:01:58;;;;;;;15.57;11.20;;;;;;;10.81;100.00;96042.44;6181953;23;20158;-82
2022/10/13 03:04:23;;;;;;;17.77;10.50;;;;;;;10.79;100.00;96037.38;6181777;23;20154;-83
2022/10/13 03:06:48;;;;;;;20.90;11.43;;;;;;;10.76;100.00;96040.25;6179777;23;20170;-82
2022/10/13 03:09:13;;;;;;;14.27;10.77;;;;;;;10.75;100.00;96034.22;6156408;23;20189;-82
2022/10/13 03:11:39;;;;;;;15.67;11.40;;;;;;;10.79;100.00;96029.59;6183491;23;20154;-82
2022/10/13 03:14:04;;;;;;;18.23;11.23;;;;;;;10.77;100.00;96028.88;6157485;23;20185;-83
2022/10/13 03:16:29;;;;;;;20.53;11.50;;;;;;;10.78;100.00;96030.56;6156361;23;20545;-82
2022/10/13 03:18:55;;;;;;;14.97;10.93;;;;;;;10.76;100.00;96025.47;6182053;23;20179;-82
2022/10/13 03:21:20;;;;;;;14.50;10.50;;;;;;;10.86;100.00;96017.66;6182035;23;20166;-82
2022/10/13 03:23:46;;;;;;;18.67;11.67;;;;;;;10.87;100.00;96021.94;6157195;23;20166;-82
2022/10/13 03:26:11;;;;;;;17.87;11.37;;;;;;;10.87;100.00;96008.94;6190953;23;20169;-82
2022/10/13 03:28:36;;;;;;;15.70;10.97;;;;;;;10.90;100.00;96013.84;6205429;23;20222;-83
2022/10/13 03:31:04;;;;;;;14.33;11.37;;;;;;;10.94;100.00;96019.59;6185239;23;20155;-83
2022/10/13 03:33:30;;;;;;;14.63;11.90;;;;;;;10.84;100.00;96021.38;6208988;23;20155;-83
2022/10/13 03:36:03;;;;;;;18.17;12.10;;;;;;;10.79;100.00;96024.41;6159869;23;20748;-82
2022/10/13 03:38:29;;;;;;;22.80;12.13;;;;;;;10.77;100.00;96023.69;6184491;23;20190;-84
2022/10/13 03:40:54;;;;;;;17.27;11.67;;;;;;;10.88;100.00;96023.56;6185384;23;20150;-83
2022/10/13 03:43:20;;;;;;;18.33;12.67;;;;;;;10.85;100.00;96026.44;6159036;23;20232;-82
2022/10/13 03:45:56;;;;;;;20.67;14.57;;;;;;;10.87;100.00;96031.50;6156266;23;20163;-82
2022/10/13 03:48:22;;;;;;;25.13;14.93;;;;;;;10.95;100.00;96023.81;6206054;23;20181;-83
2022/10/13 03:50:47;;;;;;;23.53;14.63;;;;;;;10.94;100.00;96030.78;6181531;23;20186;-83
2022/10/13 03:53:16;;;;;;;21.97;15.07;;;;;;;10.89;100.00;96017.41;6181479;23;20194;-83
2022/10/13 03:55:41;;;;;;;22.50;14.63;;;;;;;10.95;100.00;96014.25;6180995;23;20181;-82
2022/10/13 03:58:06;;;;;;;24.07;15.37;;;;;;;10.84;100.00;96017.00;6181592;23;20667;-82
2022/10/13 04:00:34;;;;;;;20.43;15.53;;;;;;;10.94;100.00;96012.59;6181548;23;20190;-82
2022/10/13 04:02:59;;;;;;;20.67;15.90;;;;;;;10.82;100.00;96011.13;6181210;23;20165;-83
2022/10/13 04:05:25;;;;;;;23.13;15.53;;;;;;;10.84;100.00;96011.81;6156260;23;20154;-82
2022/10/13 04:07:50;;;;;;;21.67;14.20;;;;;;;10.84;100.00;96010.97;6180398;23;20667;-82
2022/10/13 04:10:16;;;;;;;25.60;16.03;;;;;;;10.72;100.00;96012.91;6183969;23;20213;-82
2022/10/13 04:12:41;;;;;;;23.30;14.70;;;;;;;10.62;100.00;96006.91;6183436;23;20158;-82
2022/10/13 04:15:07;;;;;;;20.57;15.93;;;;;;;10.65;100.00;96007.44;6194147;23;20139;-83
2022/10/13 04:17:32;;;;;;;22.20;15.73;;;;;;;10.64;100.00;96012.78;6182313;23;20165;-83
2022/10/13 04:19:57;;;;;;;22.37;15.67;;;;;;;10.54;100.00;96019.75;6178933;23;20209;-83
2022/10/13 04:22:23;;;;;;;22.77;15.17;;;;;;;10.46;100.00;96018.63;6187741;23;20158;-83
2022/10/13 04:24:48;;;;;;;25.53;16.30;;;;;;;10.40;100.00;96015.75;6162485;23;20153;-83
2022/10/13 04:27:15;;;;;;;23.20;15.37;;;;;;;10.34;100.00;96016.31;6187693;23;20159;-83
2022/10/13 04:29:41;;;;;;;21.83;15.83;;;;;;;10.28;100.00;96025.44;6162402;23;20186;-83
2022/10/13 04:32:06;;;;;;;25.33;15.30;;;;;;;10.11;100.00;96019.09;6184988;23;20185;-83
2022/10/13 04:34:31;;;;;;;25.77;15.63;;;;;;;10.19;100.00;96021.03;6161687;23;20158;-83
2022/10/13 04:36:57;;;;;;;26.00;16.53;;;;;;;10.24;100.00;96010.25;6160870;23;20181;-83
2022/10/13 04:39:22;;;;;;;25.97;15.90;;;;;;;10.22;100.00;96015.59;6186282;23;20509;-82
2022/10/13 04:41:47;;;;;;;21.93;14.60;;;;;;;10.34;100.00;96005.94;6161343;23;20158;-82
2022/10/13 04:44:13;;;;;;;28.03;17.03;;;;;;;10.27;100.00;96010.81;6160774;23;20173;-83
2022/10/13 04:46:38;;;;;;;27.33;16.27;;;;;;;10.29;100.00;96001.13;6160257;23;20163;-83
2022/10/13 04:49:03;;;;;;;27.73;16.07;;;;;;;10.19;100.00;96003.69;6185586;23;20189;-83
2022/10/13 04:51:29;;;;;;;19.83;15.27;;;;;;;10.20;100.00;96002.72;6160762;23;20169;-83
2022/10/13 04:53:56;;;;;;;24.47;15.63;;;;;;;10.15;100.00;95999.69;6185975;23;20151;-83
2022/10/13 04:56:21;;;;;;;27.10;15.93;;;;;;;10.08;100.00;96009.00;6186859;23;20151;-83
2022/10/13 04:58:46;;;;;;;27.97;15.97;;;;;;;10.06;100.00;96013.47;6161978;23;20204;-83
2022/10/13 05:01:14;;;;;;;20.37;16.10;;;;;;;10.07;100.00;96014.28;6161695;23;20225;-82
2022/10/13 05:03:41;;;;;;;25.47;16.20;;;;;;;10.08;100.00;96010.75;6185902;23;20189;-83
2022/10/13 05:06:12;;;;;;;20.57;15.27;;;;;;;10.18;100.00;96006.41;6210256;23;20233;-83
2022/10/13 05:08:37;;;;;;;22.23;15.07;;;;;;;10.26;100.00;96006.59;6185894;23;20182;-83
2022/10/13 05:11:03;;;;;;;24.50;15.10;;;;;;;10.29;100.00;96002.91;6184742;23;20187;-83
2022/10/13 05:13:28;;;;;;;24.30;14.73;;;;;;;10.37;100.00;95992.66;6159784;23;20630;-82
2022/10/13 05:15:55;;;;;;;21.57;14.93;;;;;;;10.30;100.00;96002.75;6159688;23;20170;-83
2022/10/13 05:18:20;;;;;;;19.67;14.77;;;;;;;10.16;100.00;96003.94;6210384;23;20194;-83
2022/10/13 05:20:46;;;;;;;19.00;14.00;;;;;;;10.23;100.00;96006.84;6158640;23;20161;-82
2022/10/13 05:23:12;;;;;;;20.07;14.73;;;;;;;10.15;100.00;96011.84;6160003;23;20178;-83
2022/10/13 05:25:37;;;;;;;18.30;13.80;;;;;;;10.06;100.00;96015.25;6151480;23;20150;-83
2022/10/13 05:28:04;;;;;;;23.30;14.30;;;;;;;10.10;100.00;96012.25;6158593;23;20265;-82
2022/10/13 05:30:29;;;;;;;20.40;13.93;;;;;;;10.02;100.00;96009.50;6158843;23;20562;-82
2022/10/13 05:32:54;;;;;;;18.70;14.30;;;;;;;9.98;100.00;96018.50;6157188;23;20158;-83
2022/10/13 05:35:20;;;;;;;18.07;12.17;;;;;;;10.03;100.00;96020.72;6182256;23;20150;-81
2022/10/13 05:37:45;;;;;;;17.93;13.40;;;;;;;10.05;100.00;96017.03;6183342;23;20151;-82
2022/10/13 05:40:10;;;;;;;16.03;13.00;;;;;;;10.07;100.00;96007.34;6159055;23;20161;-82
2022/10/13 05:42:36;;;;;;;20.10;14.40;;;;;;;10.05;100.00;96005.81;6183527;23;20162;-82
2022/10/13 05:45:01;;;;;;;18.90;12.87;;;;;;;10.09;100.00;96000.25;6182993;23;20158;-82
2022/10/13 05:47:27;;;;;;;21.47;14.07;;;;;;;10.02;100.00;95993.94;6158396;23;20159;-83
2022/10/13 05:49:54;;;;;;;14.70;11.80;;;;;;;10.08;100.00;95990.00;6183917;23;20171;-83
2022/10/13 05:52:20;;;;;;;17.53;12.87;;;;;;;10.01;100.00;95994.91;6183645;23;20163;-82
2022/10/13 05:54:47;;;;;;;17.03;12.77;;;;;;;10.05;100.00;95990.25;6183275;23;20151;-82
2022/10/13 05:57:21;;;;;;;17.33;13.03;;;;;;;9.99;100.00;96001.19;6182762;23;20478;-81
2022/10/13 05:59:51;;;;;;;16.23;12.70;;;;;;;9.99;100.00;95989.03;6183243;23;20170;-83
2022/10/13 06:02:18;;;;;;;16.93;13.37;;;;;;;10.05;100.00;95992.84;6184675;23;20166;-82
2022/10/13 06:04:45;;;;;;;15.40;12.80;;;;;;;10.15;100.00;95997.09;6158483;23;20154;-81
2022/10/13 06:07:11;;;;;;;17.27;12.23;;;;;;;10.12;100.00;95999.16;6182983;23;20170;-83
2022/10/13 06:09:37;;;;;;;16.13;11.53;;;;;;;10.25;100.00;95997.16;6159220;23;20186;-82
2022/10/13 06:12:04;;;;;;;15.73;12.73;;;;;;;10.17;100.00;95989.19;6184764;23;20167;-82
2022/10/13 06:14:29;;;;;;;17.17;12.37;;;;;;;10.24;100.00;95989.50;6158240;23;20639;-82
2022/10/13 06:16:55;;;;;;;15.50;12.87;;;;;;;10.33;100.00;95983.50;6155827;23;20150;-83
2022/10/13 06:19:20;;;;;;;13.53;11.80;;;;;;;10.40;100.00;95985.41;6158060;23;20241;-82
2022/10/13 06:21:45;;;;;;;20.07;12.93;;;;;;;10.41;100.00;95984.47;6207278;23;20166;-82
2022/10/13 06:24:11;;;;;;;17.33;12.20;;;;;;;10.38;100.00;95973.53;6158299;23;20537;-82
2022/10/13 06:26:36;;;;;;;16.73;12.77;;;;;;;10.41;100.00;95981.03;6179513;23;20170;-81
2022/10/13 06:29:01;;;;;;;16.00;12.07;;;;;;;10.41;100.00;95981.03;6182065;23;20175;-81
2022/10/13 06:31:27;;;;;;;13.80;11.60;;;;;;;10.44;100.00;95981.59;6157287;23;20167;-82
2022/10/13 06:33:52;;;;;;;14.67;11.27;;;;;;;10.56;100.00;95986.66;6182065;23;20162;-82
2022/10/13 06:36:17;;;;;;;18.63;12.60;;;;;;;10.43;100.00;95976.56;6155495;23;20166;-82
2022/10/13 06:38:43;;;;;;;13.73;12.27;;;;;;;10.40;100.00;95977.63;6181770;23;20201;-82
2022/10/13 06:41:08;;;;;;;15.07;12.80;;;;;;;10.25;100.00;95984.19;6180752;23;20167;-82
2022/10/13 06:43:33;;;;;;;14.43;12.27;;;;;;;10.38;100.00;95978.72;6181368;23;20147;-81
2022/10/13 06:45:59;;;;;;;18.13;12.97;;;;;;;10.49;100.00;95992.38;6181090;23;20166;-82
2022/10/13 06:48:26;;;;;;;17.00;13.27;;;;;;;10.53;100.00;95984.34;6157922;23;20189;-81
2022/10/13 06:50:51;;;;;;;14.73;12.77;;;;;;;10.67;100.00;95979.53;6184238;23;20185;-81
2022/10/13 06:53:19;;;;;;;15.00;11.77;;;;;;;10.67;100.00;95982.13;6158347;23;20259;-81
2022/10/13 06:55:45;;;;;;;15.87;12.27;;;;;;;10.75;100.00;95977.06;6182180;23;20249;-82
2022/10/13 06:58:10;;;;;;;18.83;14.87;;;;;;;10.75;100.00;95979.69;6183447;23;20203;-81
2022/10/13 07:00:36;;;;;;;14.07;12.60;;;;;;;10.83;100.00;95986.78;6182720;23;20169;-80
2022/10/13 07:03:02;;;;;;;17.13;14.07;;;;;;;10.92;100.00;95990.31;6157183;23;20185;-80
2022/10/13 07:05:30;;;;;;;14.43;12.53;;;;;;;10.94;100.00;95991.81;6181446;23;20489;-80
2022/10/13 07:07:55;;;;;;;18.53;12.13;;;;;;;11.03;100.00;95990.97;6182733;23;20840;-81
2022/10/13 07:10:20;;;;;;;14.37;11.97;;;;;;;11.12;100.00;95991.09;6157613;23;20234;-81
2022/10/13 07:12:46;;;;;;;12.80;11.50;;;;;;;11.19;100.00;96002.59;6182056;23;20154;-81
2022/10/13 07:15:11;;;;;;;13.30;11.53;;;;;;;11.17;100.00;95994.94;6182438;23;20214;-81
2022/10/13 07:17:36;;;;;;;12.70;11.03;;;;;;;11.11;100.00;95992.06;6156203;23;20640;-81
2022/10/13 07:20:03;;;;;;;13.90;10.60;;;;;;;11.16;100.00;95993.31;6206595;23;20158;-80
2022/10/13 07:22:29;;;;;;;13.57;11.17;;;;;;;11.18;100.00;95988.78;6180545;23;20167;-81
2022/10/13 07:24:54;;;;;;;17.07;11.23;;;;;;;11.25;100.00;95989.03;6154680;23;20457;-80
2022/10/13 07:27:20;;;;;;;12.20;10.10;;;;;;;11.30;100.00;95981.63;6180417;23;20205;-81
2022/10/13 07:29:45;;;;;;;13.37;10.77;;;;;;;11.29;100.00;95979.97;6192956;23;20212;-81
2022/10/13 07:32:10;;;;;;;15.70;11.90;;;;;;;11.41;100.00;95986.69;6204063;23;20167;-82
2022/10/13 07:34:36;;;;;;;12.97;10.57;;;;;;;11.53;100.00;95984.72;6188711;23;20143;-82
2022/10/13 07:37:01;;;;;;;11.43;10.23;;;;;;;11.32;100.00;95979.72;6187976;23;20181;-82
2022/10/13 07:39:26;;;;;;;11.77;10.57;;;;;;;11.36;100.00;95970.66;6186462;23;20166;-82
2022/10/13 07:41:51;;;;;;;14.13;11.00;;;;;;;11.83;100.00;95975.84;6187561;23;20185;-81
2022/10/13 07:44:17;;;;;;;11.33;9.63;;;;;;;12.01;99.63;95966.28;6185985;23;20631;-82
2022/10/13 07:46:42;;;;;;;13.53;10.63;;;;;;;12.12;99.72;95963.50;6159370;23;20158;-82
2022/10/13 07:49:08;;;;;;;13.87;11.23;;;;;;;12.09;98.69;95957.75;6159920;23;20261;-82
2022/10/13 07:51:33;;;;;;;12.07;9.70;;;;;;;12.33;98.29;95959.78;6159946;23;20253;-82
2022/10/13 07:53:59;;;;;;;12.97;10.17;;;;;;;12.19;98.55;95966.31;6159932;23;20151;-81
2022/10/13 07:56:24;;;;;;;14.10;10.13;;;;;;;12.34;98.34;95961.41;6183075;23;20162;-81
2022/10/13 07:58:49;;;;;;;11.53;10.33;;;;;;;12.50;97.83;95960.75;6158423;23;20190;-82
2022/10/13 08:01:15;;;;;;;11.50;9.87;;;;;;;12.59;96.41;95958.06;6186180;23;20193;-82
2022/10/13 08:03:41;;;;;;;9.30;8.40;;;;;;;12.68;96.79;95961.56;6164010;23;20523;-81
2022/10/13 08:06:07;;;;;;;14.23;9.73;;;;;;;12.85;95.32;95972.94;6184654;23;20569;-80
2022/10/13 08:08:33;;;;;;;11.03;8.60;;;;;;;12.80;95.76;95967.34;6152654;23;20197;-81
2022/10/13 08:11:04;;;;;;;11.07;9.00;;;;;;;12.87;95.38;95960.56;6175906;23;20182;-82
2022/10/13 08:13:31;;;;;;;12.93;9.50;;;;;;;13.20;93.50;95962.47;6174860;23;20217;-82
2022/10/13 08:15:59;;;;;;;12.40;9.40;;;;;;;12.89;94.75;95966.44;6176119;23;20539;-82
2022/10/13 08:18:25;;;;;;;11.40;8.93;;;;;;;12.91;94.97;95962.75;6171364;23;20510;-81
2022/10/13 08:20:50;;;;;;;14.60;8.83;;;;;;;13.01;94.94;95963.47;6163546;23;20465;-81
2022/10/13 08:23:15;;;;;;;12.13;8.90;;;;;;;13.29;94.21;95958.94;6139181;23;20292;-82
2022/10/13 08:25:42;;;;;;;14.27;9.27;;;;;;;13.24;93.66;95960.34;6139400;23;20661;-81
2022/10/13 08:28:33;;;;;;;10.33;8.97;;;;;;;13.55;92.86;95953.69;6139255;23;20186;-81
2022/10/13 08:30:59;;;;;;;12.27;8.53;;;;;;;13.60;92.27;95955.81;6134962;23;20253;-81
2022/10/13 08:33:25;;;;;;;14.23;8.97;;;;;;;13.71;91.37;95955.56;6145143;23;20167;-81
2022/10/13 08:35:50;;;;;;;11.33;8.73;;;;;;;13.54;92.47;95956.47;6166168;23;20250;-81
2022/10/13 08:38:16;;;;;;;9.80;8.77;;;;;;;13.56;92.32;95964.94;6141612;23;20450;-83
2022/10/13 08:40:46;;;;;;;11.60;8.90;;;;;;;13.65;90.87;95960.59;6165771;23;20151;-82
2022/10/13 08:43:14;;;;;;;10.60;8.63;;;;;;;13.84;91.16;95968.97;6184458;23;20155;-82
2022/10/13 08:45:39;;;;;;;13.30;8.90;;;;;;;13.71;91.78;95973.03;6159088;23;20163;-82
2022/10/13 08:48:11;;;;;;;13.97;9.30;;;;;;;13.54;92.13;95975.53;6183606;23;20175;-82
2022/10/13 08:50:40;;;;;;;11.37;8.63;;;;;;;13.63;91.99;95960.75;6184265;23;20220;-82
2022/10/13 08:53:22;;;;;;;12.00;8.43;;;;;;;13.94;91.50;95968.84;6154213;23;20177;-82
2022/10/13 08:55:57;;;;;;;9.60;8.40;;;;;;;14.21;90.05;95972.19;6130881;23;20205;-83
2022/10/13 08:58:30;;;;;;;13.63;8.87;;;;;;;14.03;90.03;95978.34;6157103;23;20243;-83
2022/10/13 09:01:07;;;;;;;12.90;9.13;;;;;;;14.08;89.24;95973.47;6129807;23;20205;-82
2022/10/13 09:03:53;;;;;;;11.23;8.87;;;;;;;14.32;89.14;95971.91;6160355;23;20233;-82
2022/10/13 09:06:30;;;;;;;10.90;8.00;;;;;;;14.62;88.81;95962.66;6161033;23;20474;-82
2022/10/13 09:09:00;;;;;;;11.03;8.67;;;;;;;14.67;87.47;95961.22;6159975;23;20232;-82
2022/10/13 09:11:32;;;;;;;11.23;8.40;;;;;;;14.51;87.65;95960.38;6162730;23;20325;-84
2022/10/13 09:14:00;;;;;;;12.20;8.20;;;;;;;14.94;86.50;95960.06;6168235;23;20238;-82
2022/10/13 09:16:37;;;;;;;9.25;8.10;;;;;;;15.06;85.87;95963.16;6138164;23;20672;-82
2022/10/13 09:19:23;;;;;;;8.83;7.53;;;;;;;15.08;86.89;95963.00;6156146;23;20667;-82
2022/10/13 09:21:51;;;;;;;12.10;8.60;;;;;;;14.94;86.46;95957.47;6168765;23;20163;-81
2022/10/13 09:24:19;;;;;;;11.60;8.40;;;;;;;15.30;83.31;95959.69;6163235;23;20167;-82
2022/10/13 09:26:46;;;;;;;10.30;8.15;;;;;;;15.40;83.97;95964.75;6156831;23;20591;-82
2022/10/13 09:29:19;;;;;;;9.30;7.87;;;;;;;15.23;84.49;95958.72;6152619;23;20338;-82
2022/10/13 09:31:45;;;;;;;9.73;7.60;;;;;;;15.26;84.91;95959.19;6164009;23;20154;-82
2022/10/13 09:34:17;;;;;;;10.82;6.95;;;;;;;14.97;85.51;95957.13;6137505;23;20502;-82
2022/10/13 09:37:01;;;;;;;9.70;7.72;;;;;;;15.14;85.10;95959.72;6155401;23;20139;-81
2022/10/13 09:39:27;;;;;;;8.48;7.53;;;;;;;15.01;85.38;95957.59;6156546;23;20258;-82
2022/10/13 09:42:08;;;;;;;11.13;7.97;;;;;;;15.15;85.28;95956.13;6164040;23;20252;-82
2022/10/13 09:44:33;;;;;;;10.43;8.02;;;;;;;14.61;86.20;95961.03;6173748;23;20162;-81
2022/10/13 09:47:01;;;;;;;9.40;7.87;;;;;;;14.62;86.87;95953.03;6174748;23;20485;-82
2022/10/13 09:49:30;;;;;;;11.40;8.63;;;;;;;14.49;88.09;95962.31;6156643;23;20277;-81
2022/10/13 09:52:02;;;;;;;11.53;8.37;;;;;;;14.45;88.19;95960.03;6183293;23;20181;-82
2022/10/13 09:54:55;;;;;;;13.73;7.88;;;;;;;14.45;88.74;95960.03;6168679;23;20824;-82
2022/10/13 09:57:34;;;;;;;9.20;7.97;;;;;;;14.31;88.33;95962.41;6155630;23;20158;-83
2022/10/13 10:00:12;;;;;;;8.73;7.50;;;;;;;14.38;88.30;95963.41;6140129;23;20158;-82
2022/10/13 10:03:02;;;;;;;9.23;8.27;;;;;;;14.24;89.54;95962.25;6136457;23;20216;-83
2022/10/13 10:05:28;;;;;;;10.57;7.37;;;;;;;14.61;88.07;95956.63;6100848;23;20462;-83
2022/10/13 10:07:56;;;;;;;10.33;7.97;;;;;;;14.59;87.61;95953.38;6157578;23;20539;-82
2022/10/13 10:10:29;;;;;;;12.17;8.20;;;;;;;14.61;88.78;95961.03;6141461;23;21025;-82
2022/10/13 10:12:54;;;;;;;12.23;8.00;;;;;;;14.87;86.32;95968.72;6111645;23;20844;-84
2022/10/13 10:15:29;;;;;;;9.80;7.33;;;;;;;14.89;86.95;95964.97;6132708;23;20154;-84
2022/10/13 10:18:04;;;;;;;9.70;7.90;;;;;;;14.85;86.18;95963.66;6146075;23;20928;-82
2022/10/13 10:20:40;;;;;;;10.15;7.10;;;;;;;15.02;84.92;95957.47;6119409;23;20139;-83
2022/10/13 10:23:31;;;;;;;7.78;6.95;;;;;;;14.98;84.79;95952.69;6151066;23;20226;-82
2022/10/13 10:26:00;;;;;;;11.93;7.57;;;;;;;15.00;85.74;95956.78;6168773;23;20162;-83
2022/10/13 10:28:45;;;;;;;11.13;7.10;;;;;;;15.37;83.81;95951.97;6182138;23;20179;-82
2022/10/13 10:31:35;;;;;;;10.02;7.07;;;;;;;15.68;82.74;95957.34;6207132;23;20180;-82
2022/10/13 10:34:19;;;;;;;10.63;7.65;;;;;;;15.73;81.26;95952.41;6207430;23;20631;-82
2022/10/13 10:36:50;;;;;;;10.63;7.03;;;;;;;15.88;80.17;95955.13;6205781;23;20154;-83
2022/10/13 10:39:20;;;;;;;7.70;6.85;;;;;;;16.13;79.94;95954.03;6157227;23;20175;-82
2022/10/13 10:42:00;;;;;;;10.05;7.32;;;;;;;16.29;79.23;95948.69;6156906;23;20166;-81
2022/10/13 10:44:35;;;;;;;13.35;7.18;;;;;;;16.44;78.20;95946.16;6182178;23;20254;-82
2022/10/13 10:47:04;;;;;;;11.10;7.45;;;;;;;16.45;77.90;95934.69;6156094;23;20154;-82
2022/10/13 10:49:34;;;;;;;8.65;6.90;;;;;;;16.56;77.19;95939.50;6182055;23;20236;-82
2022/10/13 10:52:02;;;;;;;9.52;6.88;;;;;;;16.63;76.02;95935.19;6182052;23;20238;-81
2022/10/13 10:54:49;;;;;;;8.13;6.60;;;;;;;16.37;76.47;95924.25;6182043;23;20162;-81
2022/10/13 10:57:34;;;;;;;10.02;6.80;;;;;;;16.41;76.87;95918.47;6157887;23;20209;-82
2022/10/13 11:00:18;;;;;;;12.38;7.07;;;;;;;16.33;77.08;95917.69;6182832;23;20154;-81
2022/10/13 11:02:52;;;;;;;10.35;6.50;;;;;;;16.79;75.59;95926.44;6182705;23;20528;-80
2022/10/13 11:05:17;;;;;;;12.38;7.00;;;;;;;16.80;75.37;95911.50;6181574;23;20143;-82
2022/10/13 11:07:44;;;;;;;11.73;7.18;;;;;;;16.94;73.90;95916.75;6156952;23;20220;-80
2022/10/13 11:10:12;;;;;;;12.38;6.97;;;;;;;16.81;74.94;95913.13;6207651;23;20191;-81
2022/10/13 11:12:45;;;;;;;9.98;7.25;;;;;;;16.72;75.61;95915.00;6208200;23;20166;-81
2022/10/13 11:15:29;;;;;;;10.18;7.70;;;;;;;16.76;75.83;95904.97;6206193;23;20162;-81
2022/10/13 11:17:55;;;;;;;12.68;6.70;;;;;;;16.84;76.10;95899.66;6182374;23;20182;-81
2022/10/13 11:20:20;;;;;;;7.65;5.88;;;;;;;17.03;75.56;95900.94;6156333;23;20248;-81
2022/10/13 11:22:58;;;;;;;11.02;8.13;;;;;;;16.96;76.25;95895.59;6206621;23;20158;-81